createdAt,value
2022-12-19T00:00:32.430Z,-0.50
2022-12-19T00:05:38.167Z,-0.40
2022-12-19T00:10:39.777Z,-0.40
2022-12-19T00:15:41.458Z,-0.30
2022-12-19T00:20:43.128Z,-0.30
2022-12-19T00:25:44.727Z,-0.20
2022-12-19T00:30:47.389Z,-0.20
2022-12-19T00:35:49.027Z,-0.10
2022-12-19T00:40:50.708Z,-0.10
2022-12-19T00:45:52.365Z,-0.20
2022-12-19T00:51:00.524Z,-0.20
2022-12-19T00:56:04.838Z,-0.20
2022-12-19T01:01:08.380Z,-0.20
2022-12-19T01:06:10.401Z,-0.20
2022-12-19T01:11:12.867Z,-0.30
2022-12-19T01:16:14.605Z,-0.20
2022-12-19T01:21:16.247Z,-0.20
2022-12-19T01:26:17.874Z,-0.20
2022-12-19T01:31:19.595Z,-0.10
2022-12-19T01:36:21.399Z,-0.10
2022-12-19T01:41:23.187Z,-0.10
2022-12-19T01:46:43.637Z,-0.10
2022-12-19T01:51:48.193Z,0.00
2022-12-19T01:56:56.164Z,0.00
2022-12-19T02:02:07.565Z,0.10
2022-12-19T02:07:15.549Z,0.10
2022-12-19T02:12:18.199Z,0.20
2022-12-19T02:17:39.828Z,0.10
2022-12-19T02:23:00.448Z,0.10
2022-12-19T02:28:11.050Z,0.20
2022-12-19T02:33:43.500Z,0.20
2022-12-19T02:38:56.315Z,0.20
2022-12-19T02:43:59.219Z,0.20
2022-12-19T02:49:01.299Z,0.30
2022-12-19T02:54:03.464Z,0.30
2022-12-19T02:59:32.213Z,0.30
2022-12-19T03:05:14.291Z,0.40
2022-12-19T03:10:45.185Z,0.40
2022-12-19T03:15:47.515Z,0.50
2022-12-19T03:21:02.362Z,0.50
2022-12-19T03:26:12.658Z,0.60
2022-12-19T03:31:16.142Z,0.60
2022-12-19T03:36:24.349Z,0.70
2022-12-19T03:41:53.466Z,0.70
2022-12-19T03:47:00.779Z,0.70
2022-12-19T03:52:32.583Z,0.70
2022-12-19T03:57:46.805Z,0.80
2022-12-19T04:02:50.889Z,0.80
2022-12-19T04:08:01.779Z,0.90
2022-12-19T04:13:12.537Z,0.90
2022-12-19T04:18:15.341Z,0.90
2022-12-19T04:23:27.159Z,0.90
2022-12-19T04:28:45.956Z,0.90
2022-12-19T04:33:47.628Z,1.00
2022-12-19T04:38:49.273Z,1.00
2022-12-19T04:43:51.043Z,1.00
2022-12-19T04:48:52.768Z,1.00
2022-12-19T04:53:54.545Z,1.00
2022-12-19T04:58:57.984Z,1.00
2022-12-19T05:04:04.353Z,1.10
2022-12-19T05:09:06.735Z,1.10
2022-12-19T05:14:08.956Z,1.10
2022-12-19T05:19:10.883Z,1.20
2022-12-19T05:24:12.656Z,1.20
2022-12-19T05:29:14.317Z,1.20
2022-12-19T05:34:15.991Z,1.30
2022-12-19T05:39:17.614Z,1.30
2022-12-19T05:44:19.234Z,1.40
2022-12-19T05:49:20.973Z,1.40
2022-12-19T05:54:22.816Z,1.50
2022-12-19T05:59:24.541Z,1.50
2022-12-19T06:04:26.223Z,1.50
2022-12-19T06:09:29.037Z,1.60
2022-12-19T06:14:30.748Z,1.70
2022-12-19T06:19:32.512Z,1.80
2022-12-19T06:24:34.166Z,1.80
2022-12-19T06:29:35.897Z,1.90
2022-12-19T06:35:03.268Z,1.90
2022-12-19T06:39:59.379Z,1.90
2022-12-19T06:45:01.041Z,1.90
2022-12-19T06:50:03.870Z,2.00
2022-12-19T06:55:14.628Z,2.00
2022-12-19T07:00:16.989Z,2.00
2022-12-19T07:05:19.054Z,2.00
2022-12-19T07:10:20.875Z,2.00
2022-12-19T07:15:24.201Z,2.10
2022-12-19T07:20:45.336Z,2.10
2022-12-19T07:25:48.428Z,2.10
2022-12-19T07:30:52.322Z,2.10
2022-12-19T07:35:54.286Z,2.20
2022-12-19T07:40:56.419Z,2.30
2022-12-19T07:46:01.707Z,2.30
2022-12-19T07:51:04.632Z,2.40
2022-12-19T07:56:07.371Z,2.40
2022-12-19T08:01:10.057Z,2.40
2022-12-19T08:06:11.886Z,2.40
2022-12-19T08:11:18.888Z,2.40
2022-12-19T08:16:21.300Z,2.40
2022-12-19T08:21:24.213Z,2.40
2022-12-19T08:26:28.305Z,2.40
2022-12-19T08:31:31.722Z,2.40
2022-12-19T08:36:33.845Z,2.40
2022-12-19T08:41:36.826Z,2.40
2022-12-19T08:46:38.784Z,2.50
2022-12-19T08:51:40.620Z,2.50
2022-12-19T08:56:46.031Z,2.50
2022-12-19T09:01:49.829Z,2.70
2022-12-19T09:06:51.697Z,2.80
2022-12-19T09:11:53.579Z,2.80
2022-12-19T09:16:55.535Z,2.90
2022-12-19T09:22:01.278Z,2.90
2022-12-19T09:27:03.280Z,2.90
2022-12-19T09:32:05.308Z,3.00
2022-12-19T09:37:08.595Z,3.00
2022-12-19T09:42:16.461Z,3.00
2022-12-19T09:47:23.298Z,3.10
2022-12-19T09:52:43.476Z,3.10
2022-12-19T09:57:51.128Z,3.20
2022-12-19T10:03:02.521Z,3.10
2022-12-19T10:08:23.192Z,3.20
2022-12-19T10:13:49.760Z,3.20
2022-12-19T10:19:14.186Z,3.20
2022-12-19T10:24:41.968Z,3.20
2022-12-19T10:30:20.862Z,3.30
2022-12-19T10:35:25.024Z,3.40
2022-12-19T10:40:34.592Z,3.50
2022-12-19T10:45:47.091Z,3.60
2022-12-19T10:50:49.590Z,3.70
2022-12-19T10:55:55.674Z,3.70
2022-12-19T11:01:18.953Z,3.80
2022-12-19T11:06:41.502Z,3.80
2022-12-19T11:13:25.840Z,3.90
2022-12-19T11:25:02.492Z,4.00
2022-12-19T11:30:42.815Z,4.00
2022-12-19T11:30:45.892Z,4.00
2022-12-19T11:33:17.543Z,4.00
2022-12-19T11:38:42.120Z,4.00
2022-12-19T11:44:01.955Z,4.00
2022-12-19T11:49:12.863Z,3.90
2022-12-19T11:54:25.455Z,3.90
2022-12-19T11:59:30.494Z,4.00
2022-12-19T12:05:20.653Z,4.00
2022-12-19T12:16:28.597Z,4.10
2022-12-19T12:22:29.115Z,4.20
2022-12-19T12:31:06.436Z,4.20
2022-12-19T12:31:18.719Z,4.20
2022-12-19T12:35:36.474Z,4.20
2022-12-19T12:39:02.441Z,4.30
2022-12-19T12:44:09.797Z,4.40
2022-12-19T12:49:36.315Z,4.40
2022-12-19T12:54:42.563Z,4.50
2022-12-19T12:59:46.438Z,4.60
2022-12-19T13:05:00.649Z,4.70
2022-12-19T13:10:25.648Z,4.70
2022-12-19T13:15:27.440Z,4.80
2022-12-19T13:20:29.168Z,4.80
2022-12-19T13:25:33.725Z,4.90
2022-12-19T13:31:13.494Z,5.00
2022-12-19T13:39:33.753Z,5.10
2022-12-19T13:41:49.711Z,5.10
2022-12-19T13:46:54.556Z,5.10
2022-12-19T13:51:58.204Z,5.00
2022-12-19T13:57:08.200Z,5.00
2022-12-19T14:02:38.885Z,5.00
2022-12-19T14:07:47.617Z,4.90
2022-12-19T14:14:01.378Z,4.90
2022-12-19T14:18:44.375Z,5.00
2022-12-19T14:23:47.366Z,5.10
2022-12-19T14:29:04.763Z,5.10
2022-12-19T14:34:43.372Z,5.20
2022-12-19T14:39:33.581Z,5.20
2022-12-19T14:52:08.827Z,5.30
2022-12-19T14:54:22.928Z,5.30
2022-12-19T14:56:56.087Z,5.30
2022-12-19T15:01:40.016Z,5.30
2022-12-19T15:07:10.037Z,5.20
2022-12-19T15:14:03.996Z,5.30
2022-12-19T15:17:55.387Z,5.30
2022-12-19T15:22:57.110Z,5.40
2022-12-19T15:27:58.824Z,5.30
2022-12-19T15:33:00.500Z,5.50
2022-12-19T15:38:02.219Z,5.50
2022-12-19T15:43:04.866Z,5.60
2022-12-19T15:48:06.539Z,5.60
2022-12-19T15:53:40.175Z,5.60
2022-12-19T15:58:42.851Z,5.50
2022-12-19T16:03:44.872Z,5.50
2022-12-19T16:08:46.691Z,5.50
2022-12-19T16:14:06.614Z,5.60
2022-12-19T16:19:24.281Z,5.60
2022-12-19T16:24:26.067Z,5.60
2022-12-19T16:29:31.227Z,5.60
2022-12-19T16:34:32.969Z,5.70
2022-12-19T16:39:34.740Z,5.70
2022-12-19T16:44:36.433Z,5.80
2022-12-19T16:49:38.232Z,5.80
2022-12-19T16:54:40.080Z,5.90
2022-12-19T16:59:42.405Z,6.00
2022-12-19T17:04:48.955Z,6.10
2022-12-19T17:09:54.195Z,6.20
2022-12-19T17:14:55.944Z,6.30
2022-12-19T17:19:57.630Z,6.30
2022-12-19T17:24:59.647Z,6.40
2022-12-19T17:30:01.292Z,6.50
2022-12-19T17:35:03.077Z,6.50
2022-12-19T17:40:15.984Z,6.60
2022-12-19T17:45:20.649Z,6.70
2022-12-19T17:50:28.067Z,6.70
2022-12-19T17:55:30.863Z,6.60
2022-12-19T18:00:33.719Z,6.50
2022-12-19T18:05:36.557Z,6.50
2022-12-19T18:10:38.261Z,6.50
2022-12-19T18:15:41.125Z,6.40
2022-12-19T18:20:44.394Z,6.50
2022-12-19T18:25:47.081Z,6.50
2022-12-19T18:30:50.028Z,6.50
2022-12-19T18:35:51.785Z,6.50
2022-12-19T18:40:53.531Z,6.60
2022-12-19T18:45:55.749Z,6.60
2022-12-19T18:50:59.062Z,6.70
2022-12-19T18:56:02.009Z,6.70
2022-12-19T19:01:05.597Z,6.70
2022-12-19T19:06:32.939Z,6.80
2022-12-19T19:11:37.703Z,6.80
2022-12-19T19:16:39.922Z,6.80
2022-12-19T19:21:42.611Z,6.90
2022-12-19T19:26:44.685Z,6.90
2022-12-19T19:31:48.765Z,7.00
2022-12-19T19:36:54.764Z,7.00
2022-12-19T19:41:56.545Z,7.00
2022-12-19T19:46:58.475Z,7.00
2022-12-19T19:52:03.237Z,7.00
2022-12-19T19:57:05.127Z,7.00
2022-12-19T20:02:08.530Z,7.00
2022-12-19T20:07:10.395Z,7.00
2022-12-19T20:12:14.195Z,7.00
2022-12-19T20:17:15.873Z,7.20
2022-12-19T20:22:17.963Z,7.30
2022-12-19T20:27:19.657Z,7.30
2022-12-19T20:32:31.782Z,7.20
2022-12-19T20:37:33.491Z,7.20
2022-12-19T20:42:35.869Z,7.10
2022-12-19T20:47:48.318Z,7.00
2022-12-19T20:52:50.053Z,6.90
2022-12-19T20:57:51.757Z,7.00
2022-12-19T21:03:26.206Z,6.80
2022-12-19T21:08:17.171Z,6.90
2022-12-19T21:13:19.614Z,6.80
2022-12-19T21:18:21.825Z,6.90
2022-12-19T21:23:25.538Z,7.10
2022-12-19T21:28:27.834Z,7.20
2022-12-19T21:33:30.207Z,7.20
2022-12-19T21:38:31.952Z,7.30
2022-12-19T21:43:35.180Z,7.30
2022-12-19T21:48:41.825Z,7.30
2022-12-19T21:53:43.587Z,7.40
2022-12-19T21:58:45.433Z,7.40
2022-12-19T22:03:47.633Z,7.50
2022-12-19T22:08:50.055Z,7.50
2022-12-19T22:13:51.779Z,7.60
2022-12-19T22:18:54.883Z,7.70
2022-12-19T22:23:58.545Z,7.80
2022-12-19T22:29:00.382Z,7.80
2022-12-19T22:34:04.750Z,8.00
2022-12-19T22:39:10.199Z,8.10
2022-12-19T22:44:25.421Z,8.10
2022-12-19T22:49:27.145Z,8.00
2022-12-19T22:54:28.927Z,8.00
2022-12-19T22:59:30.816Z,8.00
2022-12-19T23:04:32.625Z,8.10
2022-12-19T23:09:34.283Z,8.10
2022-12-19T23:14:35.906Z,8.20
2022-12-19T23:19:37.608Z,8.40
2022-12-19T23:24:40.294Z,8.70
2022-12-19T23:29:42.066Z,8.80
2022-12-19T23:34:43.951Z,8.90
2022-12-19T23:39:45.654Z,9.00
2022-12-19T23:44:47.323Z,9.10
2022-12-19T23:49:49.276Z,9.00
2022-12-19T23:54:51.425Z,9.10
2022-12-19T23:59:53.149Z,9.00
